sensor_id;sensor_type;location;lat;lon;timestamp;P1;durP1;ratioP1;P2;durP2;ratioP2
15408;SDS011;7803;48.130;13.788;2023-04-01T00:01:23;3.13;;;1.42;;
15408;SDS011;7803;48.130;13.788;2023-04-01T00:04:26;2.75;;;1.25;;
15408;SDS011;7803;48.130;13.788;2023-04-01T00:07:29;2.25;;;1.00;;
15408;SDS011;7803;48.130;13.788;2023-04-01T00:10:31;2.42;;;1.15;;
15408;SDS011;7803;48.130;13.788;2023-04-01T00:13:33;3.30;;;1.33;;
15408;SDS011;7803;48.130;13.788;2023-04-01T00:16:36;3.60;;;1.55;;
15408;SDS011;7803;48.130;13.788;2023-04-01T00:19:38;1.77;;;0.90;;
15408;SDS011;7803;48.130;13.788;2023-04-01T00:22:41;1.60;;;1.00;;
15408;SDS011;7803;48.130;13.788;2023-04-01T00:25:44;1.75;;;1.10;;
15408;SDS011;7803;48.130;13.788;2023-04-01T00:28:48;1.70;;;1.05;;
15408;SDS011;7803;48.130;13.788;2023-04-01T00:31:50;1.55;;;0.90;;
15408;SDS011;7803;48.130;13.788;2023-04-01T00:34:52;1.52;;;0.93;;
15408;SDS011;7803;48.130;13.788;2023-04-01T00:37:56;2.33;;;1.30;;
15408;SDS011;7803;48.130;13.788;2023-04-01T00:40:58;2.05;;;1.10;;
15408;SDS011;7803;48.130;13.788;2023-04-01T00:44:14;3.15;;;1.70;;
15408;SDS011;7803;48.130;13.788;2023-04-01T00:47:19;2.65;;;1.27;;
15408;SDS011;7803;48.130;13.788;2023-04-01T00:50:22;2.17;;;1.20;;
15408;SDS011;7803;48.130;13.788;2023-04-01T00:53:27;1.27;;;0.88;;
15408;SDS011;7803;48.130;13.788;2023-04-01T00:56:31;1.48;;;0.90;;
15408;SDS011;7803;48.130;13.788;2023-04-01T00:59:35;1.58;;;0.90;;
15408;SDS011;7803;48.130;13.788;2023-04-01T01:02:41;1.45;;;1.00;;
15408;SDS011;7803;48.130;13.788;2023-04-01T01:05:50;1.05;;;0.80;;
15408;SDS011;7803;48.130;13.788;2023-04-01T01:09:20;2.78;;;1.20;;
15408;SDS011;7803;48.130;13.788;2023-04-01T01:12:33;2.70;;;1.38;;
15408;SDS011;7803;48.130;13.788;2023-04-01T01:15:40;1.60;;;0.98;;
15408;SDS011;7803;48.130;13.788;2023-04-01T01:18:47;1.30;;;0.85;;
15408;SDS011;7803;48.130;13.788;2023-04-01T01:21:57;2.25;;;1.00;;
15408;SDS011;7803;48.130;13.788;2023-04-01T01:25:23;1.73;;;0.85;;
15408;SDS011;7803;48.130;13.788;2023-04-01T01:28:35;1.20;;;0.77;;
15408;SDS011;7803;48.130;13.788;2023-04-01T01:31:49;2.83;;;0.90;;
15408;SDS011;7803;48.130;13.788;2023-04-01T01:35:04;2.40;;;1.10;;
15408;SDS011;7803;48.130;13.788;2023-04-01T01:38:18;1.85;;;1.00;;
15408;SDS011;7803;48.130;13.788;2023-04-01T01:41:23;0.98;;;0.80;;
15408;SDS011;7803;48.130;13.788;2023-04-01T01:44:28;1.85;;;0.90;;
15408;SDS011;7803;48.130;13.788;2023-04-01T01:47:32;1.27;;;0.85;;
15408;SDS011;7803;48.130;13.788;2023-04-01T01:50:37;1.92;;;0.90;;
15408;SDS011;7803;48.130;13.788;2023-04-01T01:53:41;1.42;;;0.82;;
15408;SDS011;7803;48.130;13.788;2023-04-01T01:56:44;2.13;;;1.10;;
15408;SDS011;7803;48.130;13.788;2023-04-01T01:59:49;1.70;;;0.88;;
15408;SDS011;7803;48.130;13.788;2023-04-01T02:02:55;1.52;;;0.93;;
15408;SDS011;7803;48.130;13.788;2023-04-01T02:06:01;1.65;;;0.98;;
15408;SDS011;7803;48.130;13.788;2023-04-01T02:09:06;1.52;;;0.82;;
15408;SDS011;7803;48.130;13.788;2023-04-01T02:12:12;1.50;;;0.90;;
15408;SDS011;7803;48.130;13.788;2023-04-01T02:15:17;1.35;;;0.80;;
15408;SDS011;7803;48.130;13.788;2023-04-01T02:18:21;1.42;;;0.85;;
15408;SDS011;7803;48.130;13.788;2023-04-01T02:21:26;1.20;;;0.63;;
15408;SDS011;7803;48.130;13.788;2023-04-01T02:24:31;1.10;;;0.70;;
15408;SDS011;7803;48.130;13.788;2023-04-01T02:27:36;3.83;;;1.65;;
15408;SDS011;7803;48.130;13.788;2023-04-01T02:30:39;1.65;;;0.80;;
15408;SDS011;7803;48.130;13.788;2023-04-01T02:33:44;1.00;;;0.90;;
15408;SDS011;7803;48.130;13.788;2023-04-01T02:36:48;1.23;;;0.80;;
15408;SDS011;7803;48.130;13.788;2023-04-01T02:39:52;1.55;;;1.00;;
15408;SDS011;7803;48.130;13.788;2023-04-01T02:42:54;1.33;;;1.00;;
15408;SDS011;7803;48.130;13.788;2023-04-01T02:45:56;1.42;;;0.80;;
15408;SDS011;7803;48.130;13.788;2023-04-01T02:48:58;1.15;;;0.90;;
15408;SDS011;7803;48.130;13.788;2023-04-01T02:52:01;1.17;;;0.88;;
15408;SDS011;7803;48.130;13.788;2023-04-01T02:55:04;1.90;;;0.90;;
15408;SDS011;7803;48.130;13.788;2023-04-01T02:58:06;1.35;;;0.70;;
15408;SDS011;7803;48.130;13.788;2023-04-01T03:01:08;2.38;;;1.20;;
15408;SDS011;7803;48.130;13.788;2023-04-01T03:04:10;2.42;;;1.20;;
15408;SDS011;7803;48.130;13.788;2023-04-01T03:07:14;1.45;;;0.95;;
15408;SDS011;7803;48.130;13.788;2023-04-01T03:10:16;1.27;;;0.90;;
15408;SDS011;7803;48.130;13.788;2023-04-01T03:13:18;2.20;;;1.00;;
15408;SDS011;7803;48.130;13.788;2023-04-01T03:16:20;1.52;;;0.95;;
15408;SDS011;7803;48.130;13.788;2023-04-01T03:19:23;1.75;;;1.15;;
15408;SDS011;7803;48.130;13.788;2023-04-01T03:22:27;3.28;;;1.00;;
15408;SDS011;7803;48.130;13.788;2023-04-01T03:25:29;2.22;;;1.10;;
15408;SDS011;7803;48.130;13.788;2023-04-01T03:28:31;1.20;;;0.90;;
15408;SDS011;7803;48.130;13.788;2023-04-01T03:31:33;1.90;;;1.30;;
15408;SDS011;7803;48.130;13.788;2023-04-01T03:34:35;1.80;;;1.20;;
15408;SDS011;7803;48.130;13.788;2023-04-01T03:37:39;1.63;;;1.10;;
15408;SDS011;7803;48.130;13.788;2023-04-01T03:40:41;2.45;;;1.50;;
15408;SDS011;7803;48.130;13.788;2023-04-01T03:43:44;1.75;;;1.17;;
15408;SDS011;7803;48.130;13.788;2023-04-01T03:46:46;2.35;;;1.20;;
15408;SDS011;7803;48.130;13.788;2023-04-01T03:49:48;2.42;;;1.15;;
15408;SDS011;7803;48.130;13.788;2023-04-01T03:52:52;1.73;;;1.20;;
15408;SDS011;7803;48.130;13.788;2023-04-01T03:55:54;1.98;;;1.25;;
15408;SDS011;7803;48.130;13.788;2023-04-01T03:58:56;3.30;;;1.20;;
15408;SDS011;7803;48.130;13.788;2023-04-01T04:01:58;1.85;;;1.20;;
15408;SDS011;7803;48.130;13.788;2023-04-01T04:05:00;4.93;;;2.22;;
15408;SDS011;7803;48.130;13.788;2023-04-01T04:08:03;1.50;;;1.10;;
15408;SDS011;7803;48.130;13.788;2023-04-01T04:11:05;2.13;;;1.23;;
15408;SDS011;7803;48.130;13.788;2023-04-01T04:14:08;1.63;;;1.10;;
15408;SDS011;7803;48.130;13.788;2023-04-01T04:17:10;1.83;;;1.17;;
15408;SDS011;7803;48.130;13.788;2023-04-01T04:20:16;1.38;;;1.08;;
15408;SDS011;7803;48.130;13.788;2023-04-01T04:23:19;1.90;;;1.15;;
15408;SDS011;7803;48.130;13.788;2023-04-01T04:26:21;1.77;;;1.20;;
15408;SDS011;7803;48.130;13.788;2023-04-01T04:29:23;1.27;;;1.00;;
15408;SDS011;7803;48.130;13.788;2023-04-01T04:32:25;4.57;;;1.98;;
15408;SDS011;7803;48.130;13.788;2023-04-01T04:35:28;1.42;;;1.15;;
15408;SDS011;7803;48.130;13.788;2023-04-01T04:38:31;1.63;;;1.10;;
15408;SDS011;7803;48.130;13.788;2023-04-01T04:41:33;1.45;;;1.13;;
15408;SDS011;7803;48.130;13.788;2023-04-01T04:44:38;3.33;;;1.35;;
15408;SDS011;7803;48.130;13.788;2023-04-01T04:47:40;2.13;;;1.10;;
15408;SDS011;7803;48.130;13.788;2023-04-01T04:50:42;1.33;;;1.13;;
15408;SDS011;7803;48.130;13.788;2023-04-01T04:53:46;1.55;;;1.15;;
15408;SDS011;7803;48.130;13.788;2023-04-01T04:56:48;1.60;;;1.05;;
15408;SDS011;7803;48.130;13.788;2023-04-01T04:59:52;1.60;;;1.13;;
15408;SDS011;7803;48.130;13.788;2023-04-01T05:02:54;1.38;;;1.02;;
15408;SDS011;7803;48.130;13.788;2023-04-01T05:05:56;2.88;;;1.25;;
15408;SDS011;7803;48.130;13.788;2023-04-01T05:08:59;1.55;;;1.20;;
15408;SDS011;7803;48.130;13.788;2023-04-01T05:12:01;2.20;;;1.20;;
15408;SDS011;7803;48.130;13.788;2023-04-01T05:15:03;2.65;;;1.38;;
15408;SDS011;7803;48.130;13.788;2023-04-01T05:18:06;2.58;;;1.50;;
15408;SDS011;7803;48.130;13.788;2023-04-01T05:21:09;2.03;;;1.38;;
15408;SDS011;7803;48.130;13.788;2023-04-01T05:24:13;1.63;;;1.00;;
15408;SDS011;7803;48.130;13.788;2023-04-01T05:27:15;1.73;;;1.20;;
15408;SDS011;7803;48.130;13.788;2023-04-01T05:30:17;1.67;;;1.20;;
15408;SDS011;7803;48.130;13.788;2023-04-01T05:33:19;1.48;;;1.20;;
15408;SDS011;7803;48.130;13.788;2023-04-01T05:36:21;1.80;;;1.25;;
15408;SDS011;7803;48.130;13.788;2023-04-01T05:39:25;1.63;;;1.10;;
15408;SDS011;7803;48.130;13.788;2023-04-01T05:42:27;1.35;;;1.15;;
15408;SDS011;7803;48.130;13.788;2023-04-01T05:45:29;2.72;;;1.50;;
15408;SDS011;7803;48.130;13.788;2023-04-01T05:48:33;1.75;;;1.40;;
15408;SDS011;7803;48.130;13.788;2023-04-01T05:51:36;1.42;;;1.10;;
15408;SDS011;7803;48.130;13.788;2023-04-01T05:54:39;1.67;;;1.17;;
15408;SDS011;7803;48.130;13.788;2023-04-01T05:57:41;1.60;;;1.15;;
15408;SDS011;7803;48.130;13.788;2023-04-01T06:00:43;1.67;;;1.00;;
15408;SDS011;7803;48.130;13.788;2023-04-01T06:03:45;2.50;;;1.10;;
15408;SDS011;7803;48.130;13.788;2023-04-01T06:06:47;1.30;;;0.90;;
15408;SDS011;7803;48.130;13.788;2023-04-01T06:09:51;2.05;;;1.30;;
15408;SDS011;7803;48.130;13.788;2023-04-01T06:12:56;2.28;;;1.30;;
15408;SDS011;7803;48.130;13.788;2023-04-01T06:16:07;1.50;;;1.23;;
15408;SDS011;7803;48.130;13.788;2023-04-01T06:19:23;1.52;;;1.00;;
15408;SDS011;7803;48.130;13.788;2023-04-01T06:22:45;1.48;;;1.17;;
15408;SDS011;7803;48.130;13.788;2023-04-01T06:26:12;1.58;;;1.00;;
15408;SDS011;7803;48.130;13.788;2023-04-01T06:29:31;2.15;;;1.20;;
15408;SDS011;7803;48.130;13.788;2023-04-01T06:32:53;1.52;;;1.05;;
15408;SDS011;7803;48.130;13.788;2023-04-01T06:36:22;1.70;;;1.10;;
15408;SDS011;7803;48.130;13.788;2023-04-01T06:39:42;1.23;;;1.00;;
15408;SDS011;7803;48.130;13.788;2023-04-01T06:43:05;1.10;;;1.00;;
15408;SDS011;7803;48.130;13.788;2023-04-01T06:46:17;1.25;;;0.90;;
15408;SDS011;7803;48.130;13.788;2023-04-01T06:49:34;1.20;;;0.90;;
15408;SDS011;7803;48.130;13.788;2023-04-01T06:52:45;1.10;;;0.85;;
15408;SDS011;7803;48.130;13.788;2023-04-01T06:55:55;1.25;;;0.80;;
15408;SDS011;7803;48.130;13.788;2023-04-01T06:59:04;1.67;;;1.00;;
15408;SDS011;7803;48.130;13.788;2023-04-01T07:02:15;0.85;;;0.80;;
15408;SDS011;7803;48.130;13.788;2023-04-01T07:05:25;1.50;;;1.00;;
15408;SDS011;7803;48.130;13.788;2023-04-01T07:08:30;1.13;;;0.85;;
15408;SDS011;7803;48.130;13.788;2023-04-01T07:11:37;1.63;;;0.80;;
15408;SDS011;7803;48.130;13.788;2023-04-01T07:14:41;0.73;;;0.73;;
15408;SDS011;7803;48.130;13.788;2023-04-01T07:17:45;1.35;;;0.77;;
15408;SDS011;7803;48.130;13.788;2023-04-01T07:20:53;1.02;;;0.70;;
15408;SDS011;7803;48.130;13.788;2023-04-01T07:23:57;4.97;;;2.05;;
15408;SDS011;7803;48.130;13.788;2023-04-01T07:27:05;0.73;;;0.60;;
15408;SDS011;7803;48.130;13.788;2023-04-01T07:30:14;0.85;;;0.70;;
15408;SDS011;7803;48.130;13.788;2023-04-01T07:33:19;0.88;;;0.70;;
15408;SDS011;7803;48.130;13.788;2023-04-01T07:36:29;1.00;;;0.80;;
15408;SDS011;7803;48.130;13.788;2023-04-01T07:39:39;1.00;;;0.82;;
15408;SDS011;7803;48.130;13.788;2023-04-01T07:42:55;0.68;;;0.60;;
15408;SDS011;7803;48.130;13.788;2023-04-01T07:46:10;1.00;;;0.80;;
15408;SDS011;7803;48.130;13.788;2023-04-01T07:49:23;1.08;;;0.75;;
15408;SDS011;7803;48.130;13.788;2023-04-01T07:52:32;0.93;;;0.70;;
15408;SDS011;7803;48.130;13.788;2023-04-01T07:55:42;1.40;;;0.88;;
15408;SDS011;7803;48.130;13.788;2023-04-01T07:58:51;1.00;;;0.80;;
15408;SDS011;7803;48.130;13.788;2023-04-01T08:02:03;0.95;;;0.70;;
15408;SDS011;7803;48.130;13.788;2023-04-01T08:05:14;1.40;;;0.70;;
15408;SDS011;7803;48.130;13.788;2023-04-01T08:08:26;1.30;;;0.80;;
15408;SDS011;7803;48.130;13.788;2023-04-01T08:11:41;1.15;;;0.82;;
15408;SDS011;7803;48.130;13.788;2023-04-01T08:14:56;1.30;;;0.85;;
15408;SDS011;7803;48.130;13.788;2023-04-01T08:18:13;1.63;;;0.95;;
15408;SDS011;7803;48.130;13.788;2023-04-01T08:21:23;1.00;;;0.88;;
15408;SDS011;7803;48.130;13.788;2023-04-01T08:24:32;1.00;;;0.80;;
15408;SDS011;7803;48.130;13.788;2023-04-01T08:27:37;2.00;;;1.23;;
15408;SDS011;7803;48.130;13.788;2023-04-01T08:30:43;1.48;;;0.88;;
15408;SDS011;7803;48.130;13.788;2023-04-01T08:33:50;0.80;;;0.52;;
15408;SDS011;7803;48.130;13.788;2023-04-01T08:36:57;0.75;;;0.70;;
15408;SDS011;7803;48.130;13.788;2023-04-01T08:40:09;1.38;;;0.90;;
15408;SDS011;7803;48.130;13.788;2023-04-01T08:43:40;2.17;;;1.15;;
15408;SDS011;7803;48.130;13.788;2023-04-01T08:47:09;1.48;;;0.85;;
15408;SDS011;7803;48.130;13.788;2023-04-01T08:50:35;1.10;;;0.80;;
15408;SDS011;7803;48.130;13.788;2023-04-01T08:53:52;1.40;;;0.77;;
15408;SDS011;7803;48.130;13.788;2023-04-01T08:57:11;1.30;;;0.80;;
15408;SDS011;7803;48.130;13.788;2023-04-01T09:00:24;1.65;;;0.75;;
15408;SDS011;7803;48.130;13.788;2023-04-01T09:03:36;2.97;;;1.20;;
15408;SDS011;7803;48.130;13.788;2023-04-01T09:06:50;1.40;;;0.90;;
15408;SDS011;7803;48.130;13.788;2023-04-01T09:13:48;1.10;;;0.90;;
15408;SDS011;7803;48.130;13.788;2023-04-01T09:17:13;1.02;;;0.80;;
15408;SDS011;7803;48.130;13.788;2023-04-01T09:24:18;1.55;;;1.00;;
15408;SDS011;7803;48.130;13.788;2023-04-01T09:27:27;1.88;;;0.93;;
15408;SDS011;7803;48.130;13.788;2023-04-01T09:30:38;1.42;;;0.90;;
15408;SDS011;7803;48.130;13.788;2023-04-01T09:37:47;1.48;;;1.10;;
15408;SDS011;7803;48.130;13.788;2023-04-01T09:40:57;1.85;;;1.10;;
15408;SDS011;7803;48.130;13.788;2023-04-01T09:44:02;1.92;;;1.15;;
15408;SDS011;7803;48.130;13.788;2023-04-01T09:47:16;1.27;;;1.05;;
15408;SDS011;7803;48.130;13.788;2023-04-01T09:50:37;1.50;;;1.10;;
15408;SDS011;7803;48.130;13.788;2023-04-01T09:53:52;1.23;;;1.10;;
15408;SDS011;7803;48.130;13.788;2023-04-01T10:00:50;2.13;;;1.27;;
15408;SDS011;7803;48.130;13.788;2023-04-01T10:07:51;3.35;;;1.38;;
15408;SDS011;7803;48.130;13.788;2023-04-01T10:22:23;2.35;;;1.45;;
15408;SDS011;7803;48.130;13.788;2023-04-01T10:25:54;1.90;;;1.40;;
15408;SDS011;7803;48.130;13.788;2023-04-01T10:29:24;1.92;;;1.20;;
15408;SDS011;7803;48.130;13.788;2023-04-01T10:36:45;1.00;;;0.90;;
15408;SDS011;7803;48.130;13.788;2023-04-01T10:39:59;1.50;;;1.00;;
15408;SDS011;7803;48.130;13.788;2023-04-01T10:43:46;1.02;;;0.80;;
15408;SDS011;7803;48.130;13.788;2023-04-01T10:47:33;1.10;;;0.88;;
15408;SDS011;7803;48.130;13.788;2023-04-01T10:51:11;1.52;;;0.98;;
15408;SDS011;7803;48.130;13.788;2023-04-01T10:54:25;1.20;;;0.90;;
15408;SDS011;7803;48.130;13.788;2023-04-01T10:57:55;0.82;;;0.80;;
15408;SDS011;7803;48.130;13.788;2023-04-01T11:12:18;1.38;;;0.80;;
15408;SDS011;7803;48.130;13.788;2023-04-01T11:16:03;1.00;;;0.90;;
15408;SDS011;7803;48.130;13.788;2023-04-01T11:19:41;1.08;;;0.90;;
15408;SDS011;7803;48.130;13.788;2023-04-01T11:23:14;1.50;;;0.98;;
15408;SDS011;7803;48.130;13.788;2023-04-01T11:26:33;0.90;;;0.70;;
15408;SDS011;7803;48.130;13.788;2023-04-01T11:29:57;1.00;;;0.80;;
15408;SDS011;7803;48.130;13.788;2023-04-01T11:33:09;1.55;;;0.82;;
15408;SDS011;7803;48.130;13.788;2023-04-01T11:36:32;1.42;;;0.95;;
15408;SDS011;7803;48.130;13.788;2023-04-01T11:39:59;0.90;;;0.70;;
15408;SDS011;7803;48.130;13.788;2023-04-01T11:43:07;1.63;;;0.88;;
15408;SDS011;7803;48.130;13.788;2023-04-01T11:46:17;1.75;;;0.88;;
15408;SDS011;7803;48.130;13.788;2023-04-01T11:49:28;1.70;;;0.90;;
15408;SDS011;7803;48.130;13.788;2023-04-01T11:52:52;2.83;;;1.00;;
15408;SDS011;7803;48.130;13.788;2023-04-01T11:56:07;1.95;;;1.02;;
15408;SDS011;7803;48.130;13.788;2023-04-01T11:59:25;2.30;;;0.80;;
15408;SDS011;7803;48.130;13.788;2023-04-01T12:02:53;1.77;;;0.90;;
15408;SDS011;7803;48.130;13.788;2023-04-01T12:06:13;2.50;;;1.00;;
15408;SDS011;7803;48.130;13.788;2023-04-01T12:09:22;2.15;;;1.15;;
15408;SDS011;7803;48.130;13.788;2023-04-01T12:12:33;2.83;;;1.40;;
15408;SDS011;7803;48.130;13.788;2023-04-01T12:15:44;1.80;;;0.80;;
15408;SDS011;7803;48.130;13.788;2023-04-01T12:19:01;2.05;;;1.50;;
15408;SDS011;7803;48.130;13.788;2023-04-01T12:22:20;4.38;;;1.48;;
15408;SDS011;7803;48.130;13.788;2023-04-01T12:25:38;5.13;;;1.50;;
15408;SDS011;7803;48.130;13.788;2023-04-01T12:28:59;3.15;;;1.20;;
15408;SDS011;7803;48.130;13.788;2023-04-01T12:32:13;2.22;;;1.20;;
15408;SDS011;7803;48.130;13.788;2023-04-01T12:35:22;2.25;;;1.00;;
15408;SDS011;7803;48.130;13.788;2023-04-01T12:38:31;3.72;;;1.30;;
15408;SDS011;7803;48.130;13.788;2023-04-01T12:41:39;3.25;;;1.30;;
15408;SDS011;7803;48.130;13.788;2023-04-01T12:44:56;1.98;;;1.20;;
15408;SDS011;7803;48.130;13.788;2023-04-01T12:48:18;4.50;;;1.23;;
15408;SDS011;7803;48.130;13.788;2023-04-01T12:51:38;3.70;;;1.60;;
15408;SDS011;7803;48.130;13.788;2023-04-01T12:54:52;4.00;;;1.50;;
15408;SDS011;7803;48.130;13.788;2023-04-01T13:01:52;2.30;;;1.13;;
15408;SDS011;7803;48.130;13.788;2023-04-01T13:08:52;2.22;;;1.60;;
15408;SDS011;7803;48.130;13.788;2023-04-01T13:12:10;3.13;;;1.73;;
15408;SDS011;7803;48.130;13.788;2023-04-01T13:15:37;1.90;;;1.70;;
15408;SDS011;7803;48.130;13.788;2023-04-01T13:18:55;3.42;;;1.90;;
15408;SDS011;7803;48.130;13.788;2023-04-01T13:22:03;2.88;;;2.03;;
15408;SDS011;7803;48.130;13.788;2023-04-01T13:25:16;2.83;;;2.05;;
15408;SDS011;7803;48.130;13.788;2023-04-01T13:28:28;2.83;;;2.30;;
15408;SDS011;7803;48.130;13.788;2023-04-01T13:31:36;4.90;;;2.22;;
15408;SDS011;7803;48.130;13.788;2023-04-01T13:34:49;2.72;;;2.30;;
15408;SDS011;7803;48.130;13.788;2023-04-01T13:38:04;2.97;;;2.58;;
15408;SDS011;7803;48.130;13.788;2023-04-01T13:41:22;2.78;;;2.50;;
15408;SDS011;7803;48.130;13.788;2023-04-01T13:44:33;2.60;;;2.33;;
15408;SDS011;7803;48.130;13.788;2023-04-01T13:51:14;3.10;;;2.80;;
15408;SDS011;7803;48.130;13.788;2023-04-01T13:54:39;3.85;;;2.90;;
15408;SDS011;7803;48.130;13.788;2023-04-01T14:01:41;4.53;;;3.50;;
15408;SDS011;7803;48.130;13.788;2023-04-01T14:04:52;5.88;;;3.60;;
15408;SDS011;7803;48.130;13.788;2023-04-01T14:08:14;4.85;;;3.45;;
15408;SDS011;7803;48.130;13.788;2023-04-01T14:11:29;6.20;;;3.95;;
15408;SDS011;7803;48.130;13.788;2023-04-01T14:14:46;8.95;;;3.80;;
15408;SDS011;7803;48.130;13.788;2023-04-01T14:18:06;6.85;;;3.60;;
15408;SDS011;7803;48.130;13.788;2023-04-01T14:21:21;11.35;;;3.65;;
15408;SDS011;7803;48.130;13.788;2023-04-01T14:24:45;6.95;;;3.63;;
15408;SDS011;7803;48.130;13.788;2023-04-01T14:28:03;6.82;;;3.58;;
15408;SDS011;7803;48.130;13.788;2023-04-01T14:31:20;7.90;;;3.90;;
15408;SDS011;7803;48.130;13.788;2023-04-01T14:37:59;8.55;;;3.67;;
15408;SDS011;7803;48.130;13.788;2023-04-01T14:41:16;6.72;;;3.83;;
15408;SDS011;7803;48.130;13.788;2023-04-01T14:44:30;7.22;;;3.90;;
15408;SDS011;7803;48.130;13.788;2023-04-01T14:47:52;9.02;;;4.05;;
15408;SDS011;7803;48.130;13.788;2023-04-01T14:51:01;6.47;;;3.92;;
15408;SDS011;7803;48.130;13.788;2023-04-01T14:54:12;7.93;;;4.28;;
15408;SDS011;7803;48.130;13.788;2023-04-01T14:57:23;7.55;;;4.30;;
15408;SDS011;7803;48.130;13.788;2023-04-01T15:00:26;7.88;;;4.35;;
15408;SDS011;7803;48.130;13.788;2023-04-01T15:03:45;6.10;;;4.20;;
15408;SDS011;7803;48.130;13.788;2023-04-01T15:06:56;5.55;;;4.20;;
15408;SDS011;7803;48.130;13.788;2023-04-01T15:10:12;7.63;;;4.05;;
15408;SDS011;7803;48.130;13.788;2023-04-01T15:13:36;7.82;;;4.30;;
15408;SDS011;7803;48.130;13.788;2023-04-01T15:16:59;5.45;;;4.18;;
15408;SDS011;7803;48.130;13.788;2023-04-01T15:20:25;7.35;;;4.63;;
15408;SDS011;7803;48.130;13.788;2023-04-01T15:23:43;6.18;;;4.90;;
15408;SDS011;7803;48.130;13.788;2023-04-01T15:26:54;6.80;;;4.30;;
15408;SDS011;7803;48.130;13.788;2023-04-01T15:30:17;5.63;;;4.30;;
15408;SDS011;7803;48.130;13.788;2023-04-01T15:33:39;5.78;;;4.63;;
15408;SDS011;7803;48.130;13.788;2023-04-01T15:36:57;6.20;;;4.60;;
15408;SDS011;7803;48.130;13.788;2023-04-01T15:40:11;5.20;;;4.70;;
15408;SDS011;7803;48.130;13.788;2023-04-01T15:43:25;7.65;;;4.60;;
15408;SDS011;7803;48.130;13.788;2023-04-01T15:46:39;7.35;;;4.40;;
15408;SDS011;7803;48.130;13.788;2023-04-01T15:49:46;7.60;;;5.10;;
15408;SDS011;7803;48.130;13.788;2023-04-01T15:52:59;6.88;;;4.72;;
15408;SDS011;7803;48.130;13.788;2023-04-01T15:56:11;7.03;;;5.10;;
15408;SDS011;7803;48.130;13.788;2023-04-01T15:59:28;6.32;;;4.63;;
15408;SDS011;7803;48.130;13.788;2023-04-01T16:02:47;5.70;;;4.78;;
15408;SDS011;7803;48.130;13.788;2023-04-01T16:05:54;6.20;;;4.88;;
15408;SDS011;7803;48.130;13.788;2023-04-01T16:12:49;5.20;;;4.60;;
15408;SDS011;7803;48.130;13.788;2023-04-01T16:16:05;4.63;;;4.22;;
15408;SDS011;7803;48.130;13.788;2023-04-01T16:19:24;6.18;;;4.60;;
15408;SDS011;7803;48.130;13.788;2023-04-01T16:22:34;5.00;;;4.50;;
15408;SDS011;7803;48.130;13.788;2023-04-01T16:25:41;5.70;;;5.07;;
15408;SDS011;7803;48.130;13.788;2023-04-01T16:28:53;5.70;;;5.10;;
15408;SDS011;7803;48.130;13.788;2023-04-01T16:32:02;5.18;;;4.68;;
15408;SDS011;7803;48.130;13.788;2023-04-01T16:35:23;5.15;;;4.65;;
15408;SDS011;7803;48.130;13.788;2023-04-01T16:38:33;5.20;;;4.70;;
15408;SDS011;7803;48.130;13.788;2023-04-01T16:41:46;5.43;;;4.93;;
15408;SDS011;7803;48.130;13.788;2023-04-01T16:44:53;5.10;;;4.60;;
15408;SDS011;7803;48.130;13.788;2023-04-01T16:47:58;4.70;;;4.30;;
15408;SDS011;7803;48.130;13.788;2023-04-01T16:51:09;4.78;;;4.22;;
15408;SDS011;7803;48.130;13.788;2023-04-01T16:54:18;5.55;;;4.80;;
15408;SDS011;7803;48.130;13.788;2023-04-01T16:57:35;4.63;;;4.22;;
15408;SDS011;7803;48.130;13.788;2023-04-01T17:00:47;4.88;;;4.38;;
15408;SDS011;7803;48.130;13.788;2023-04-01T17:03:51;4.82;;;4.32;;
15408;SDS011;7803;48.130;13.788;2023-04-01T17:07:01;5.07;;;4.57;;
15408;SDS011;7803;48.130;13.788;2023-04-01T17:10:18;6.10;;;4.80;;
15408;SDS011;7803;48.130;13.788;2023-04-01T17:13:40;4.38;;;4.00;;
15408;SDS011;7803;48.130;13.788;2023-04-01T17:16:54;6.50;;;4.40;;
15408;SDS011;7803;48.130;13.788;2023-04-01T17:20:14;5.32;;;4.82;;
15408;SDS011;7803;48.130;13.788;2023-04-01T17:23:28;4.90;;;4.40;;
15408;SDS011;7803;48.130;13.788;2023-04-01T17:26:36;4.95;;;4.50;;
15408;SDS011;7803;48.130;13.788;2023-04-01T17:29:54;4.65;;;4.25;;
15408;SDS011;7803;48.130;13.788;2023-04-01T17:33:08;4.85;;;4.40;;
15408;SDS011;7803;48.130;13.788;2023-04-01T17:36:28;5.28;;;4.60;;
15408;SDS011;7803;48.130;13.788;2023-04-01T17:39:48;4.65;;;4.25;;
15408;SDS011;7803;48.130;13.788;2023-04-01T17:43:09;5.35;;;4.65;;
15408;SDS011;7803;48.130;13.788;2023-04-01T17:46:30;5.40;;;4.90;;
15408;SDS011;7803;48.130;13.788;2023-04-01T17:49:42;5.18;;;4.68;;
15408;SDS011;7803;48.130;13.788;2023-04-01T17:52:58;5.82;;;4.80;;
15408;SDS011;7803;48.130;13.788;2023-04-01T17:56:18;5.88;;;5.10;;
15408;SDS011;7803;48.130;13.788;2023-04-01T17:59:34;5.47;;;4.90;;
15408;SDS011;7803;48.130;13.788;2023-04-01T18:02:42;5.22;;;4.80;;
15408;SDS011;7803;48.130;13.788;2023-04-01T18:05:58;5.18;;;4.72;;
15408;SDS011;7803;48.130;13.788;2023-04-01T18:09:08;5.85;;;5.35;;
15408;SDS011;7803;48.130;13.788;2023-04-01T18:12:22;5.55;;;5.05;;
15408;SDS011;7803;48.130;13.788;2023-04-01T18:15:34;5.72;;;5.13;;
15408;SDS011;7803;48.130;13.788;2023-04-01T18:18:47;5.53;;;5.03;;
15408;SDS011;7803;48.130;13.788;2023-04-01T18:22:08;5.60;;;5.10;;
15408;SDS011;7803;48.130;13.788;2023-04-01T18:25:19;5.03;;;4.60;;
15408;SDS011;7803;48.130;13.788;2023-04-01T18:28:32;5.35;;;4.85;;
15408;SDS011;7803;48.130;13.788;2023-04-01T18:31:40;6.38;;;5.20;;
15408;SDS011;7803;48.130;13.788;2023-04-01T18:34:52;5.72;;;5.13;;
15408;SDS011;7803;48.130;13.788;2023-04-01T18:38:00;5.38;;;4.90;;
15408;SDS011;7803;48.130;13.788;2023-04-01T18:41:13;5.35;;;4.93;;
15408;SDS011;7803;48.130;13.788;2023-04-01T18:44:23;5.70;;;5.20;;
15408;SDS011;7803;48.130;13.788;2023-04-01T18:47:34;5.80;;;5.30;;
15408;SDS011;7803;48.130;13.788;2023-04-01T18:50:50;5.88;;;5.38;;
15408;SDS011;7803;48.130;13.788;2023-04-01T18:53:57;6.20;;;5.70;;
15408;SDS011;7803;48.130;13.788;2023-04-01T18:57:04;5.88;;;5.38;;
15408;SDS011;7803;48.130;13.788;2023-04-01T19:00:13;6.43;;;5.82;;
15408;SDS011;7803;48.130;13.788;2023-04-01T19:03:22;6.80;;;6.15;;
15408;SDS011;7803;48.130;13.788;2023-04-01T19:06:35;5.60;;;5.10;;
15408;SDS011;7803;48.130;13.788;2023-04-01T19:09:48;6.00;;;5.40;;
15408;SDS011;7803;48.130;13.788;2023-04-01T19:12:57;6.03;;;5.53;;
15408;SDS011;7803;48.130;13.788;2023-04-01T19:16:12;6.10;;;5.57;;
15408;SDS011;7803;48.130;13.788;2023-04-01T19:19:29;6.43;;;5.82;;
15408;SDS011;7803;48.130;13.788;2023-04-01T19:22:47;6.25;;;5.65;;
15408;SDS011;7803;48.130;13.788;2023-04-01T19:25:58;6.63;;;5.93;;
15408;SDS011;7803;48.130;13.788;2023-04-01T19:29:06;6.38;;;5.82;;
15408;SDS011;7803;48.130;13.788;2023-04-01T19:32:22;6.30;;;5.78;;
15408;SDS011;7803;48.130;13.788;2023-04-01T19:35:34;6.20;;;5.63;;
15408;SDS011;7803;48.130;13.788;2023-04-01T19:38:52;6.18;;;5.57;;
15408;SDS011;7803;48.130;13.788;2023-04-01T19:42:03;6.85;;;6.25;;
15408;SDS011;7803;48.130;13.788;2023-04-01T19:45:18;6.40;;;5.80;;
15408;SDS011;7803;48.130;13.788;2023-04-01T19:48:33;6.68;;;6.07;;
15408;SDS011;7803;48.130;13.788;2023-04-01T19:51:48;6.45;;;5.85;;
15408;SDS011;7803;48.130;13.788;2023-04-01T19:54:59;6.53;;;5.93;;
15408;SDS011;7803;48.130;13.788;2023-04-01T19:58:10;6.43;;;5.82;;
15408;SDS011;7803;48.130;13.788;2023-04-01T20:01:20;7.05;;;6.35;;
15408;SDS011;7803;48.130;13.788;2023-04-01T20:04:29;6.63;;;6.03;;
15408;SDS011;7803;48.130;13.788;2023-04-01T20:07:37;8.35;;;7.00;;
15408;SDS011;7803;48.130;13.788;2023-04-01T20:10:48;6.25;;;5.72;;
15408;SDS011;7803;48.130;13.788;2023-04-01T20:14:01;6.80;;;6.20;;
15408;SDS011;7803;48.130;13.788;2023-04-01T20:17:16;6.68;;;6.07;;
15408;SDS011;7803;48.130;13.788;2023-04-01T20:20:23;6.55;;;5.95;;